Latest Weather Observations for Hunters Hill

IDV60801

Issued at 9:35 pm EDT Friday 31 October 2014 (issued every 30 minutes, with the page automatically refreshed every 10 minutes)

About weather observations | Map of weather stations | Latest weather observations for VIC | Other Formats
Station Details ID: 082139 Name: HUNTERS HILL Lat: -36.21 Lon: 147.54 Height: 981.0 m
Data from the previous 72 hours. | See also: Recent months at Hunters Hill
Date/Time
EDT
Temp
°C
App
Temp
°C
Dew
Point
Rel
Hum
%
Delta-T
°C
Wind Press
QNH
hPa
Press
MSL
hPa
Rain
since 9 am
mm
Dir
 
Spd
km/h
Gust
km/h
Spd
kts
Gust
kts
31/09:30pm 22.4 17.3 -1.6 20 11.1 N 15 26 8 14 - - 0.0
31/09:00pm 22.2 17.6 -1.1 21 10.8 NNW 13 32 7 17 - - 0.0
31/08:30pm 22.5 18.2 -1.6 20 11.1 NNW 11 24 6 13 - - 0.0
31/08:00pm 22.4 18.2 -1.0 21 10.9 NNW 11 20 6 11 - - 0.0
31/07:30pm 23.0 18.9 -0.5 21 11.1 NNW 11 19 6 10 - - 0.0
31/07:00pm 23.4 20.0 1.7 24 10.7 NW 9 17 5 9 - - 0.0
31/06:30pm 23.3 20.3 2.2 25 10.5 NW 7 17 4 9 - - 0.0
31/06:00pm 23.1 20.2 2.6 26 10.3 WNW 7 13 4 7 - - 0.0
31/05:30pm 24.0 20.3 2.2 24 10.9 W 11 22 6 12 - - 0.0
31/05:00pm 24.4 20.5 1.3 22 11.4 WNW 11 24 6 13 - - 0.0
31/04:30pm 24.5 21.2 2.6 24 11.1 WNW 9 20 5 11 - - 0.0
31/04:00pm 24.5 20.7 2.0 23 11.3 WNW 11 24 6 13 - - 0.0
31/03:30pm 25.8 21.4 2.5 22 11.9 NNW 15 30 8 16 - - 0.0
31/03:00pm 24.5 20.4 2.0 23 11.3 WNW 13 24 7 13 - - 0.0
31/02:30pm 26.0 22.3 4.5 25 11.3 N 13 26 7 14 - - 0.0
31/02:00pm 24.8 21.7 3.5 25 11.0 NNW 9 22 5 12 - - 0.0
31/01:30pm 24.6 20.6 2.7 24 11.1 NW 13 26 7 14 - - 0.0
31/01:00pm 23.5 21.0 4.9 30 9.7 NNW 7 15 4 8 - - 0.0
31/12:30pm 22.5 20.0 5.0 32 9.1 N 7 17 4 9 - - 0.0
31/12:00pm 22.6 19.0 3.2 28 9.8 N 11 26 6 14 - - 0.0
31/11:30am 22.5 19.9 4.1 30 9.4 N 7 13 4 7 - - 0.0
31/11:00am 22.1 19.7 5.1 33 8.9 N 7 17 4 9 - - 0.0
31/10:30am 21.1 18.9 5.5 36 8.1 N 6 15 3 8 - - 0.0
31/10:00am 20.4 18.7 6.0 39 7.6 N 4 9 2 5 - - 0.0
31/09:30am 19.4 17.2 5.1 39 7.3 N 6 9 3 5 - - 0.0
31/09:00am 18.4 16.0 4.2 39 7.1 N 6 11 3 6 - - 0.0
31/08:30am 17.0 14.3 2.6 38 6.9 N 6 13 3 7 - - 0.0
31/08:00am 15.9 13.6 2.7 41 6.3 NNW 4 9 2 5 - - 0.0
31/07:30am 15.7 12.7 1.8 39 6.5 N 7 11 4 6 - - 0.0
31/07:00am 15.1 12.0 1.6 40 6.3 N 7 11 4 6 - - 0.0
31/06:30am 15.6 12.4 1.0 37 6.7 N 7 9 4 5 - - 0.0
31/06:00am 15.7 12.7 0.7 36 6.8 NNE 6 9 3 5 - - 0.0
31/05:30am 14.9 12.0 1.4 40 6.2 NNE 6 7 3 4 - - 0.0
31/05:00am 15.1 12.2 1.3 39 6.3 NNE 6 9 3 5 - - 0.0
31/04:30am 15.0 12.1 1.2 39 6.3 NNE 6 9 3 5 - - 0.0
31/04:00am 15.9 12.9 0.9 36 6.9 NNE 6 7 3 4 - - 0.0
31/03:30am 15.6 12.6 0.6 36 6.8 NNE 6 11 3 6 - - 0.0
31/03:00am 16.1 12.9 -0.2 33 7.3 NNW 6 9 3 5 - - 0.0
31/02:30am 16.3 13.1 -0.8 31 7.6 NW 6 7 3 4 - - 0.0
31/02:00am 16.2 13.4 -0.5 32 7.5 W 4 7 2 4 - - 0.0
31/01:30am 16.1 13.3 -0.6 32 7.4 WSW 4 7 2 4 - - 0.0
31/01:00am 16.3 13.9 -0.4 32 7.5 WSW 2 4 1 2 - - 0.0
31/12:30am 16.5 13.7 -0.7 31 7.7 WSW 4 6 2 3 - - 0.0
31/12:00am 16.1 14.1 -0.2 33 7.3 CALM 0 0 0 0 - - 0.0
 
Date/Time
EDT
Temp
°C
App
Temp
°C
Dew
Point
Rel
Hum
%
Delta-T
°C
Wind Press
QNH
hPa
Press
MSL
hPa
Rain
since 9 am
mm
Dir
 
Spd
km/h
Gust
km/h
Spd
kts
Gust
kts
30/11:30pm 16.6 14.2 -0.1 32 7.6 WSW 2 4 1 2 - - 0.0
30/11:00pm 16.0 13.5 -0.7 32 7.4 WSW 2 4 1 2 - - 0.0
30/10:30pm 16.4 13.5 -0.8 31 7.7 WSW 4 7 2 4 - - 0.0
30/10:00pm 16.6 13.2 -0.6 31 7.7 W 7 11 4 6 - - 0.0
30/09:30pm 16.6 13.2 -0.6 31 7.7 W 7 11 4 6 - - 0.0
30/09:00pm 16.8 13.6 0.5 33 7.5 WSW 7 17 4 9 - - 0.0
30/08:30pm 17.2 14.1 1.2 34 7.5 WSW 7 15 4 8 - - 0.0
30/08:00pm 17.3 14.3 1.7 35 7.4 WSW 7 13 4 7 - - 0.0
30/07:30pm 17.6 14.8 2.0 35 7.4 W 6 11 3 6 - - 0.0
30/07:00pm 19.3 16.7 3.1 34 8.0 W 6 17 3 9 - - 0.0
30/06:30pm 19.9 17.1 3.2 33 8.3 W 7 13 4 7 - - 0.0
30/06:00pm 20.4 17.8 4.0 34 8.3 WNW 7 15 4 8 - - 0.0
30/05:30pm 20.9 18.4 4.5 34 8.4 WNW 7 17 4 9 - - 0.0
30/05:00pm 21.0 18.5 5.0 35 8.3 W 7 15 4 8 - - 0.0
30/04:30pm 20.8 17.5 4.4 34 8.4 W 11 30 6 16 - - 0.0
30/04:00pm 20.4 17.5 4.8 36 8.0 WNW 9 19 5 10 - - 0.0
30/03:30pm 20.9 18.0 6.4 39 7.7 WNW 11 20 6 11 - - 0.0
30/03:00pm 19.7 16.3 4.2 36 7.8 W 11 22 6 12 - - 0.0
30/02:30pm 20.0 16.8 5.3 38 7.6 W 11 19 6 10 - - 0.0
30/02:00pm 19.4 16.7 5.5 40 7.2 WNW 9 22 5 12 - - 0.0
30/01:30pm 18.2 15.3 4.4 40 6.9 W 9 19 5 10 - - 0.0
30/01:00pm 18.7 16.0 5.5 42 6.8 NW 9 19 5 10 - - 0.0
30/12:30pm 17.4 14.3 3.7 40 6.7 W 9 28 5 15 - - 0.0
30/12:00pm 16.9 13.3 4.9 45 6.0 WNW 13 26 7 14 - - 0.0
30/11:30am 17.1 14.0 5.7 47 5.8 WNW 11 24 6 13 - - 0.0
30/11:00am 16.6 13.1 5.3 47 5.7 W 13 24 7 13 - - 0.0
30/10:30am 16.5 14.2 5.8 49 5.5 W 7 19 4 10 - - 0.0
30/10:00am 15.1 12.3 5.3 52 4.9 NW 9 15 5 8 - - 0.0
30/09:30am 14.6 12.5 5.9 56 4.4 NW 6 13 3 7 - - 0.0
30/09:00am 14.1 12.2 6.9 62 3.7 NW 6 11 3 6 - - 0.0
30/08:30am 12.9 10.7 5.1 59 3.8 WNW 6 9 3 5 - - 0.0
30/08:00am 12.2 10.3 4.7 60 3.6 NNW 4 7 2 4 - - 0.0
30/07:30am 11.8 9.8 4.5 61 3.5 NW 4 7 2 4 - - 0.0
30/07:00am 11.6 9.6 4.3 61 3.5 NNW 4 6 2 3 - - 0.0
30/06:30am 11.2 9.1 4.0 61 3.4 NNW 4 6 2 3 - - 0.0
30/06:00am 11.8 9.4 4.1 59 3.7 NW 6 9 3 5 - - 0.0
30/05:30am 11.7 9.3 4.2 60 3.6 NNW 6 9 3 5 - - 0.0
30/05:00am 11.7 9.3 4.2 60 3.6 NNW 6 7 3 4 - - 0.0
30/04:30am 11.8 9.4 4.5 61 3.5 NNW 6 7 3 4 - - 0.0
30/04:00am 11.7 9.8 4.9 63 3.3 NNW 4 7 2 4 - - 0.0
30/03:30am 11.5 9.6 4.9 64 3.2 W 4 6 2 3 - - 0.0
30/03:00am 11.3 9.4 5.0 65 3.0 W 4 7 2 4 - - 0.0
30/02:30am 11.5 9.2 4.7 63 3.3 W 6 11 3 6 - - 0.0
30/02:00am 11.3 8.8 4.7 64 3.2 W 7 11 4 6 - - 0.0
30/01:30am 11.2 8.9 4.7 64 3.1 W 6 9 3 5 - - 0.0
30/01:00am 11.5 9.2 4.7 63 3.3 WSW 6 9 3 5 - - 0.0
30/12:30am 11.1 9.1 4.6 64 3.1 W 4 7 2 4 - - 0.0
30/12:00am 11.2 8.8 4.4 63 3.2 W 6 7 3 4 - - 0.0
 
Date/Time
EDT
Temp
°C
App
Temp
°C
Dew
Point
Rel
Hum
%
Delta-T
°C
Wind Press
QNH
hPa
Press
MSL
hPa
Rain
since 9 am
mm
Dir
 
Spd
km/h
Gust
km/h
Spd
kts
Gust
kts
29/11:30pm 11.4 9.4 4.2 61 3.4 W 4 7 2 4 - - 0.0
29/11:00pm 11.8 9.2 4.3 60 3.6 W 7 9 4 5 - - 0.0
29/10:30pm 12.1 9.5 4.1 58 3.8 W 7 15 4 8 - - 0.0
29/10:00pm 12.6 9.6 4.1 56 4.1 W 9 15 5 8 - - 0.0
29/09:30pm 12.7 9.7 4.2 56 4.1 W 9 15 5 8 - - 0.0
29/09:00pm 12.7 10.1 4.4 57 4.0 W 7 15 4 8 - - 0.0
29/08:30pm 12.8 10.5 4.8 58 3.9 W 6 11 3 6 - - 0.0
29/08:00pm 12.7 10.3 4.4 57 4.0 W 6 9 3 5 - - 0.0
29/07:30pm 13.6 11.1 4.5 54 4.4 W 7 13 4 7 - - 0.0
29/07:00pm 14.8 12.3 4.5 50 5.1 W 7 17 4 9 - - 0.0
29/06:30pm 15.4 12.4 4.2 47 5.5 W 9 19 5 10 - - 0.0
29/06:00pm 16.7 14.2 3.7 42 6.4 W 6 11 3 6 - - 0.0
29/05:30pm 17.2 14.3 4.5 43 6.3 W 9 20 5 11 - - 0.0
29/05:00pm 16.9 14.1 3.2 40 6.6 W 7 20 4 11 - - 0.0
29/04:30pm 16.7 13.5 5.3 47 5.8 WNW 11 24 6 13 - - 0.0
29/04:00pm 16.9 13.5 3.9 42 6.4 WNW 11 22 6 12 - - 0.0
29/03:30pm 17.1 14.6 4.8 44 6.2 W 7 20 4 11 - - 0.0
29/03:00pm 16.8 13.8 4.2 43 6.2 W 9 19 5 10 - - 0.0
29/02:30pm 16.4 13.0 3.8 43 6.2 WNW 11 20 6 11 - - 0.0
29/02:00pm 17.2 14.9 5.5 46 6.0 WNW 7 17 4 9 - - 0.0
29/01:30pm 15.9 13.2 3.7 44 5.9 WNW 7 15 4 8 - - 0.0
29/01:00pm 15.1 12.3 5.0 51 5.0 W 9 20 5 11 - - 0.0
29/12:30pm 15.3 13.2 6.6 56 4.5 W 7 15 4 8 - - 0.0
29/12:00pm 13.9 11.4 4.8 54 4.5 NW 7 17 4 9 - - 0.0
29/11:30am 13.7 11.5 6.1 60 3.8 NW 7 15 4 8 - - 0.0
29/11:00am 13.5 11.3 5.2 57 4.1 NNE 6 11 3 6 - - 0.0
29/10:30am 13.2 12.4 6.3 63 3.5 CALM 0 4 0 2 - - 0.0
29/10:00am 11.3 8.9 5.4 67 2.9 WNW 7 11 4 6 - - 0.0
29/09:30am 10.3 8.4 5.1 70 2.5 NW 4 9 2 5 - - 0.0
29/09:00am 9.5 7.3 5.1 74 2.1 NW 6 9 3 5 - - 0.0
29/08:30am 8.7 6.3 4.3 74 2.1 W 6 9 3 5 - - 0.0
29/08:00am 8.1 6.0 3.9 75 1.9 W 4 7 2 4 - - 0.0
29/07:30am 7.3 5.2 3.7 78 1.6 W 4 7 2 4 - - 0.0
29/07:00am 6.8 3.8 4.1 83 1.2 W 9 15 5 8 - - 0.0
29/06:30am 6.8 4.1 3.6 80 1.4 W 7 11 4 6 - - 0.0
29/06:00am 7.2 3.3 3.4 77 1.7 WSW 13 22 7 12 - - 0.0
29/05:30am 7.2 3.3 3.6 78 1.6 WSW 13 20 7 11 - - 0.0
29/05:00am 7.4 3.6 4.0 79 1.6 WSW 13 22 7 12 - - 0.0
29/04:30am 7.2 4.3 4.7 84 1.2 W 9 15 5 8 - - 0.0
29/04:00am 7.5 4.6 4.8 83 1.3 W 9 17 5 9 - - 0.0
29/03:30am 7.5 5.0 4.6 82 1.3 WSW 7 15 4 8 - - 0.0
29/03:00am 8.3 4.7 4.9 79 1.6 WSW 13 24 7 13 - - 0.0
29/02:30am 8.1 4.5 5.0 81 1.5 WSW 13 20 7 11 - - 0.0
29/02:00am 8.3 5.5 5.2 81 1.5 WSW 9 22 5 12 - - 0.0
29/01:30am 8.0 5.7 4.9 81 1.5 WSW 6 13 3 7 - - 0.0
29/01:00am 8.5 6.0 4.9 78 1.7 WSW 7 11 4 6 - - 0.0
29/12:30am 9.2 5.6 4.8 74 2.1 WSW 13 26 7 14 - - 0.0
29/12:00am 9.0 5.8 5.0 76 1.9 W 11 24 6 13 - - 0.0
 
Date/Time
EDT
Temp
°C
App
Temp
°C
Dew
Point
Rel
Hum
%
Delta-T
°C
Wind Press
QNH
hPa
Press
MSL
hPa
Rain
since 9 am
mm
Dir
 
Spd
km/h
Gust
km/h
Spd
kts
Gust
kts
28/11:30pm 9.0 5.5 5.6 79 1.6 WSW 13 32 7 17 - - 0.0
28/11:00pm 9.1 6.5 6.0 81 1.5 W 9 17 5 9 - - 0.0
28/10:30pm 9.3 6.7 6.2 81 1.5 W 9 17 5 9 - - 0.0
28/10:00pm 9.8 7.2 6.2 78 1.8 W 9 17 5 9 - - 0.0

Other Formats:

Comma delimited format used in spreadsheet applications
http://www.bom.gov.au/fwo/IDV60801/IDV60801.94878.axf

JavaScript Object Notation format (JSON) in row-major order
http://www.bom.gov.au/fwo/IDV60801/IDV60801.94878.json